Time;durP1;ratioP1;P1;durP2;ratioP2;P2;SDS_P1;SDS_P2;PMS_P1;PMS_P2;Temp;Humidity;BMP_temperature;BMP_pressure;BME280_temperature;BME280_humidity;BME280_pressure;Samples;Min_cycle;Max_cycle;Signal;HPM_P1;HPM_P2
2022/09/13 00:01:00;;;;;;;9.38;8.88;;;;;;;23.24;70.77;98779.69;6219204;23;20056;-82
2022/09/13 00:03:28;;;;;;;8.35;7.85;;;;;;;23.25;69.77;98801.25;6212502;23;20027;-84
2022/09/13 00:05:54;;;;;;;9.23;8.48;;;;;;;23.09;69.62;98778.91;6213179;23;20031;-83
2022/09/13 00:08:23;;;;;;;7.70;7.30;;;;;;;23.14;69.89;98778.47;6215326;23;20043;-83
2022/09/13 00:10:49;;;;;;;8.43;7.95;;;;;;;23.28;70.13;98783.34;6212004;23;20421;-84
2022/09/13 00:13:17;;;;;;;8.60;8.20;;;;;;;23.32;69.82;98792.72;6213506;23;20031;-84
2022/09/13 00:15:48;;;;;;;8.77;8.27;;;;;;;23.20;68.57;98779.69;6211121;23;20021;-83
2022/09/13 00:18:16;;;;;;;8.63;8.07;;;;;;;23.28;68.98;98778.47;6212852;23;20017;-83
2022/09/13 00:20:43;;;;;;;9.07;8.32;;;;;;;23.30;68.98;98778.88;6212042;23;20036;-83
2022/09/13 00:23:11;;;;;;;9.48;8.80;;;;;;;23.19;68.67;98766.69;6214392;23;20482;-84
2022/09/13 00:25:39;;;;;;;8.23;7.82;;;;;;;23.16;68.63;98745.53;6212854;23;20020;-84
2022/09/13 00:28:06;;;;;;;9.90;9.05;;;;;;;23.25;68.58;98770.75;6211168;23;20027;-83
2022/09/13 00:30:33;;;;;;;8.43;8.02;;;;;;;23.35;68.49;98775.63;6212686;23;20032;-83
2022/09/13 00:33:03;;;;;;;7.78;7.38;;;;;;;23.24;68.12;98751.22;6213956;23;20025;-84
2022/09/13 00:35:30;;;;;;;0.68;0.55;;;;;;;23.35;68.18;98775.63;6212365;23;20020;-85
2022/09/13 00:38:00;;;;;;;1.15;0.70;;;;;;;23.51;68.48;98762.94;6212511;23;20028;-85
2022/09/13 00:40:29;;;;;;;3.38;3.25;;;;;;;23.24;67.65;98732.09;6217495;23;20024;-85
2022/09/13 00:42:56;;;;;;;8.73;7.93;;;;;;;23.33;67.69;98729.63;6213644;23;20039;-82
2022/09/13 00:45:23;;;;;;;8.82;8.32;;;;;;;23.20;67.09;98711.34;6223079;23;20104;-82
2022/09/13 00:47:56;;;;;;;8.68;8.18;;;;;;;23.60;67.52;98766.19;6215482;23;20047;-83
2022/09/13 00:50:42;;;;;;;8.88;8.48;;;;;;;23.51;66.85;98752.34;6224308;23;20021;-84
2022/09/13 00:53:14;;;;;;;8.93;8.43;;;;;;;23.57;66.78;98758.47;6215411;23;20020;-83
2022/09/13 00:55:44;;;;;;;9.60;9.00;;;;;;;23.72;66.82;98762.91;6215906;23;20024;-84
2022/09/13 00:58:19;;;;;;;9.57;9.07;;;;;;;23.76;66.20;98748.63;6214777;23;20043;-83
2022/09/13 01:00:47;;;;;;;8.82;8.30;;;;;;;23.67;66.21;98757.59;6215311;23;20046;-83
2022/09/13 01:03:17;;;;;;;9.75;8.95;;;;;;;23.36;66.29;98711.72;6215550;23;20021;-83
2022/09/13 01:05:49;;;;;;;8.77;8.27;;;;;;;23.47;66.29;98737.31;6220629;23;20494;-83
2022/09/13 01:08:21;;;;;;;9.40;8.90;;;;;;;23.49;66.19;98745.47;6215615;23;20503;-83
2022/09/13 01:10:55;;;;;;;9.00;8.30;;;;;;;23.33;65.86;98738.16;6216624;23;20087;-82
2022/09/13 01:13:25;;;;;;;1.77;1.60;;;;;;;23.14;65.90;98695.91;6215018;23;20016;-84
2022/09/13 01:15:52;;;;;;;2.40;1.48;;;;;;;23.37;66.58;98733.28;6215917;23;20020;-85
2022/09/13 01:18:19;;;;;;;3.03;0.82;;;;;;;23.40;66.50;98732.47;6215637;23;20047;-85
2022/09/13 01:21:01;;;;;;;28.05;26.15;;;;;;;22.74;69.84;98746.38;6214553;23;20016;-83
2022/09/13 01:23:34;;;;;;;30.70;28.80;;;;;;;22.01;71.43;98750.25;6213855;23;20474;-84
2022/09/13 01:26:03;;;;;;;18.55;17.55;;;;;;;21.70;72.83;98751.78;6214447;23;20025;-84
2022/09/13 01:28:48;;;;;;;15.20;14.50;;;;;;;21.28;73.45;98729.66;6216140;23;20027;-84
2022/09/13 01:31:22;;;;;;;13.32;12.60;;;;;;;21.55;73.47;98735.09;6215187;23;20027;-83
2022/09/13 01:34:04;;;;;;;12.27;11.70;;;;;;;21.97;72.19;98752.28;6213730;23;20368;-84
2022/09/13 01:36:35;;;;;;;12.68;12.07;;;;;;;22.07;71.43;98752.72;6213758;23;20024;-83
2022/09/13 01:39:05;;;;;;;11.45;10.95;;;;;;;22.28;70.90;98764.19;6214666;23;20021;-84
2022/09/13 01:42:02;;;;;;;12.23;11.63;;;;;;;22.54;69.56;98762.22;6215196;23;20092;-84
2022/09/13 01:44:48;;;;;;;0.68;0.43;;;;;;;22.43;69.65;98774.38;6216471;23;20020;-85
2022/09/13 01:47:24;;;;;;;1.55;0.47;;;;;;;22.69;69.82;98766.66;6212762;23;20025;-84
2022/09/13 01:49:58;;;;;;;5.68;1.48;;;;;;;22.76;68.93;98758.13;6214212;23;20021;-85
2022/09/13 01:52:38;;;;;;;1.20;0.80;;;;;;;22.85;69.31;98750.00;6212951;23;20021;-85
2022/09/13 01:55:08;;;;;;;;;;;;;;;22.62;68.88;98739.03;6215058;23;20024;-85
2022/09/13 01:57:39;;;;;;;0.35;0.32;;;;;;;22.51;69.13;98683.38;6214155;23;19923;-86
2022/09/13 02:00:15;;;;;;;3.05;0.60;;;;;;;22.94;69.03;98736.22;6213785;23;20431;-85
2022/09/13 02:03:09;;;;;;;1.17;0.60;;;;;;;22.99;68.60;98737.03;6214265;23;20032;-84
2022/09/13 02:05:50;;;;;;;4.70;0.77;;;;;;;22.84;69.01;98734.16;6213295;23;20019;-84
2022/09/13 02:08:31;;;;;;;1.77;0.55;;;;;;;22.79;68.83;98722.38;6214604;23;20028;-84
2022/09/13 02:11:09;;;;;;;0.45;0.45;;;;;;;22.41;71.13;98776.81;6212665;23;20023;-85
2022/09/13 02:14:00;;;;;;;1.03;0.93;;;;;;;21.58;73.90;98732.25;6214963;23;20025;-85
2022/09/13 02:16:34;;;;;;;5.70;1.17;;;;;;;21.28;75.30;98706.94;6210844;23;20246;-85
2022/09/13 02:19:14;;;;;;;3.33;0.55;;;;;;;21.55;75.18;98726.56;6213587;23;20021;-85
2022/09/13 02:21:43;;;;;;;4.78;0.98;;;;;;;21.52;75.24;98706.25;6213855;23;20025;-84
2022/09/13 02:24:20;;;;;;;12.85;11.98;;;;;;;21.75;74.46;98714.47;6213153;23;20024;-83
2022/09/13 02:26:51;;;;;;;13.82;12.93;;;;;;;21.98;74.22;98728.34;6213711;23;20039;-84
2022/09/13 02:29:23;;;;;;;12.68;11.85;;;;;;;22.29;73.94;98731.72;6213892;23;20021;-83
2022/09/13 02:32:20;;;;;;;11.07;10.57;;;;;;;22.43;73.53;98731.72;6214567;23;20079;-83
2022/09/13 02:34:57;;;;;;;9.85;9.23;;;;;;;22.60;73.48;98747.19;6216471;23;20025;-83
2022/09/13 02:37:28;;;;;;;2.35;0.70;;;;;;;22.49;72.81;98717.88;6216272;23;20027;-84
2022/09/13 02:40:02;;;;;;;0.57;0.35;;;;;;;22.49;73.08;98743.50;6215260;23;20017;-85
2022/09/13 02:42:36;;;;;;;0.63;0.50;;;;;;;22.53;72.75;98712.19;6216715;23;20020;-84
2022/09/13 02:45:05;;;;;;;0.75;0.45;;;;;;;22.50;72.51;98711.00;6213599;23;20020;-84
2022/09/13 02:47:58;;;;;;;8.90;8.50;;;;;;;22.74;72.89;98742.72;6215707;23;20031;-83
2022/09/13 02:51:05;;;;;;;9.13;8.63;;;;;;;22.88;72.20;98728.47;6212973;23;20095;-83
2022/09/13 02:53:42;;;;;;;8.27;7.75;;;;;;;22.88;72.16;98737.81;6215260;23;20021;-85
2022/09/13 02:56:12;;;;;;;4.15;0.95;;;;;;;22.64;72.59;98764.25;6214108;23;20021;-83
2022/09/13 02:59:05;;;;;;;3.88;0.93;;;;;;;22.37;73.35;98729.69;6212813;23;20020;-84
2022/09/13 03:01:35;;;;;;;2.08;1.35;;;;;;;21.78;73.76;98695.81;6207328;23;20506;-84
2022/09/13 03:04:02;;;;;;;3.20;1.67;;;;;;;21.64;74.82;98729.84;6214956;23;20078;-85
2022/09/13 03:06:29;;;;;;;1.88;1.15;;;;;;;21.54;75.36;98697.38;6214561;23;20024;-84
2022/09/13 03:09:02;;;;;;;3.85;0.77;;;;;;;21.53;75.46;98707.06;6221848;23;20016;-82
2022/09/13 03:11:32;;;;;;;4.65;1.10;;;;;;;21.60;75.87;98729.81;6232784;23;20020;-82
2022/09/13 03:13:59;;;;;;;1.45;0.75;;;;;;;21.51;76.18;98726.56;6231461;23;20024;-82
2022/09/13 03:16:26;;;;;;;4.22;1.48;;;;;;;21.44;76.28;98749.25;6222168;23;20021;-82
2022/09/13 03:19:21;;;;;;;11.40;10.48;;;;;;;21.09;76.10;98664.66;6215072;23;20371;-83
2022/09/13 03:22:16;;;;;;;3.95;1.52;;;;;;;21.48;76.47;98730.19;6212930;23;20032;-84
2022/09/13 03:25:01;;;;;;;1.65;0.50;;;;;;;21.54;76.84;98737.13;6215044;23;20025;-84
2022/09/13 03:27:28;;;;;;;7.60;1.17;;;;;;;21.71;76.76;98747.75;6214495;23;20337;-83
2022/09/13 03:30:03;;;;;;;5.68;1.55;;;;;;;21.59;76.34;98728.19;6214692;23;20020;-84
2022/09/13 03:32:45;;;;;;;11.45;10.65;;;;;;;21.56;76.47;98731.84;6213753;23;20020;-83
2022/09/13 03:35:19;;;;;;;1.80;1.38;;;;;;;21.41;75.82;98716.78;6211666;23;20549;-84
2022/09/13 03:38:13;;;;;;;2.47;1.08;;;;;;;21.43;75.86;98711.47;6211527;23;20091;-83
2022/09/13 03:40:50;;;;;;;3.60;0.50;;;;;;;21.49;76.31;98717.59;6212523;23;20366;-83
2022/09/13 03:43:25;;;;;;;10.93;10.13;;;;;;;21.40;75.66;98714.31;6213672;23;20030;-83
2022/09/13 03:45:56;;;;;;;3.38;2.03;;;;;;;21.35;75.68;98717.53;6211186;23;20059;-85
2022/09/13 03:48:24;;;;;;;10.02;9.20;;;;;;;21.41;75.53;98750.03;6212421;23;20067;-83
2022/09/13 03:50:52;;;;;;;4.60;1.20;;;;;;;21.37;76.02;98724.47;6214373;23;20509;-85
2022/09/13 03:53:24;;;;;;;9.90;9.20;;;;;;;21.10;75.58;98689.00;6213922;23;20024;-83
2022/09/13 03:55:51;;;;;;;11.13;10.02;;;;;;;21.41;75.75;98739.47;6214733;23;20456;-83
2022/09/13 03:58:20;;;;;;;4.68;1.13;;;;;;;21.29;76.01;98708.56;6215385;23;20016;-84
2022/09/13 04:00:47;;;;;;;2.35;1.27;;;;;;;20.71;77.67;98732.09;6210977;23;20483;-84
2022/09/13 04:03:14;;;;;;;29.10;27.30;;;;;;;20.09;79.77;98702.34;6212468;23;20028;-84
2022/09/13 04:05:41;;;;;;;25.13;23.65;;;;;;;20.04;80.91;98725.38;6213213;23;20040;-82
2022/09/13 04:08:08;;;;;;;20.92;19.55;;;;;;;20.04;81.11;98719.72;6211482;23;20035;-83
2022/09/13 04:10:36;;;;;;;2.45;0.93;;;;;;;19.99;81.15;98711.53;6213338;23;20027;-84
2022/09/13 04:13:04;;;;;;;16.05;15.20;;;;;;;19.88;81.13;98704.97;6213621;23;20017;-83
2022/09/13 04:15:31;;;;;;;15.50;14.80;;;;;;;20.16;80.97;98723.47;6211123;23;20028;-82
2022/09/13 04:17:58;;;;;;;6.65;5.55;;;;;;;20.06;80.58;98677.63;6213351;23;20028;-82
2022/09/13 04:20:27;;;;;;;2.67;1.27;;;;;;;20.19;80.16;98719.84;6212396;23;20017;-85
2022/09/13 04:22:56;;;;;;;16.33;2.25;;;;;;;20.38;79.96;98682.78;6217543;23;20024;-85
2022/09/13 04:25:23;;;;;;;12.43;11.82;;;;;;;20.49;79.66;98722.56;6214542;23;20020;-83
2022/09/13 04:27:58;;;;;;;14.18;12.88;;;;;;;20.63;79.51;98733.25;6217052;23;20506;-83
2022/09/13 04:30:29;;;;;;;12.85;11.98;;;;;;;20.64;79.23;98695.97;6216547;23;20019;-83
2022/09/13 04:32:58;;;;;;;11.85;11.13;;;;;;;20.92;79.04;98728.59;6215461;23;20028;-83
2022/09/13 04:35:25;;;;;;;12.55;10.80;;;;;;;20.84;78.13;98730.56;6217025;23;20021;-83
2022/09/13 04:37:55;;;;;;;11.20;10.50;;;;;;;21.10;78.16;98728.72;6216072;23;20028;-82
2022/09/13 04:40:23;;;;;;;10.90;10.30;;;;;;;21.14;77.75;98741.72;6214848;23;20062;-82
2022/09/13 04:42:50;;;;;;;4.13;0.80;;;;;;;20.96;77.45;98713.25;6214208;23;20083;-84
2022/09/13 04:45:17;;;;;;;11.45;10.43;;;;;;;20.93;77.62;98724.56;6218154;23;20032;-83
2022/09/13 04:47:43;;;;;;;11.05;10.15;;;;;;;21.08;77.85;98731.13;6216980;23;20029;-83
2022/09/13 04:50:10;;;;;;;10.30;9.70;;;;;;;21.13;77.77;98725.91;6219299;23;20063;-82
2022/09/13 04:52:37;;;;;;;12.32;10.48;;;;;;;21.02;77.33;98736.38;6217835;23;20455;-84
2022/09/13 04:55:04;;;;;;;9.60;9.10;;;;;;;21.29;77.58;98737.75;6223780;23;20328;-82
2022/09/13 04:57:31;;;;;;;10.52;9.82;;;;;;;21.26;77.34;98751.94;6225078;23;20028;-82
2022/09/13 04:59:58;;;;;;;11.68;10.88;;;;;;;21.14;77.19;98721.06;6221692;23;20025;-82
2022/09/13 05:02:24;;;;;;;10.88;10.18;;;;;;;21.34;77.60;98732.94;6226549;23;20025;-83
2022/09/13 05:04:51;;;;;;;8.27;7.22;;;;;;;21.24;77.10;98735.31;6230739;23;20028;-83
2022/09/13 05:07:18;;;;;;;11.52;10.50;;;;;;;21.14;77.44;98732.41;6224269;23;20047;-83
2022/09/13 05:09:45;;;;;;;6.13;1.20;;;;;;;21.23;77.59;98732.84;6220575;23;20471;-83
2022/09/13 05:12:12;;;;;;;7.35;1.00;;;;;;;21.28;77.33;98738.16;6213468;23;20020;-84
2022/09/13 05:14:39;;;;;;;10.55;9.95;;;;;;;21.15;77.51;98717.81;6214849;23;20028;-83
2022/09/13 05:17:06;;;;;;;11.98;10.70;;;;;;;21.19;76.81;98703.63;6214783;23;20028;-83
2022/09/13 05:19:33;;;;;;;10.35;9.65;;;;;;;21.16;77.73;98710.09;6215493;23;20017;-83
2022/09/13 05:22:01;;;;;;;11.38;10.32;;;;;;;21.26;77.82;98740.56;6215618;23;20360;-83
2022/09/13 05:24:28;;;;;;;11.60;10.52;;;;;;;21.08;77.56;98703.56;6212841;23;20024;-83
2022/09/13 05:26:54;;;;;;;11.02;10.13;;;;;;;21.16;77.74;98732.81;6212586;23;20025;-82
2022/09/13 05:29:21;;;;;;;12.25;10.90;;;;;;;21.18;77.49;98747.44;6213175;23;20538;-82
2022/09/13 05:31:48;;;;;;;10.60;9.80;;;;;;;21.19;77.60;98749.03;6213994;23;20025;-83
2022/09/13 05:34:19;;;;;;;12.55;11.50;;;;;;;21.22;77.06;98731.22;6215642;23;20024;-83
2022/09/13 05:36:46;;;;;;;10.73;10.10;;;;;;;21.27;77.00;98753.56;6212902;23;20021;-82
2022/09/13 05:39:21;;;;;;;11.05;10.00;;;;;;;21.11;77.06;98713.31;6215438;23;20515;-83
2022/09/13 05:42:08;;;;;;;9.88;9.30;;;;;;;21.06;76.85;98718.16;6216157;23;20079;-82
2022/09/13 05:44:34;;;;;;;12.23;10.68;;;;;;;21.23;77.31;98738.53;6213429;23;20032;-83
2022/09/13 05:47:01;;;;;;;12.13;11.38;;;;;;;21.26;77.24;98737.72;6212634;23;20021;-83
2022/09/13 05:49:28;;;;;;;13.40;12.13;;;;;;;21.02;78.27;98742.84;6213988;23;20020;-83
2022/09/13 05:51:55;;;;;;;12.60;11.75;;;;;;;20.87;78.59;98761.00;6213810;23;20024;-83
2022/09/13 05:54:22;;;;;;;14.02;13.02;;;;;;;20.96;78.95;98752.97;6213254;23;20463;-83
2022/09/13 05:56:51;;;;;;;12.30;10.80;;;;;;;20.94;78.37;98738.34;6213417;23;20046;-82
2022/09/13 05:59:18;;;;;;;13.63;11.65;;;;;;;21.04;78.22;98736.78;6211775;23;20040;-83
2022/09/13 06:01:45;;;;;;;7.30;4.72;;;;;;;21.01;78.33;98732.72;6212885;23;20040;-83
2022/09/13 06:04:12;;;;;;;4.22;1.13;;;;;;;20.99;77.93;98734.31;6210799;23;20478;-83
2022/09/13 06:06:38;;;;;;;16.35;13.40;;;;;;;21.06;77.63;98760.75;6209950;23;20029;-82
2022/09/13 06:09:07;;;;;;;11.02;10.25;;;;;;;21.10;77.75;98757.13;6212361;23;20043;-82
2022/09/13 06:11:34;;;;;;;12.85;11.80;;;;;;;21.19;77.94;98751.88;6214514;23;20024;-82
2022/09/13 06:14:01;;;;;;;3.53;1.52;;;;;;;20.94;77.72;98714.84;6213895;23;20056;-82
2022/09/13 06:16:28;;;;;;;12.75;11.60;;;;;;;21.15;77.98;98765.25;6214028;23;20483;-83
2022/09/13 06:18:54;;;;;;;12.60;11.35;;;;;;;21.00;78.22;98770.81;6213702;23;20028;-83
2022/09/13 06:21:22;;;;;;;6.70;6.28;;;;;;;20.97;78.08;98748.91;6210554;23;20020;-84
2022/09/13 06:23:55;;;;;;;12.13;11.38;;;;;;;20.85;78.07;98737.88;6209333;23;20020;-84
2022/09/13 06:26:24;;;;;;;11.52;10.65;;;;;;;20.82;78.57;98758.53;6220613;23;20021;-82
2022/09/13 06:28:53;;;;;;;16.58;12.68;;;;;;;20.87;78.41;98768.69;6236359;23;20028;-77
2022/09/13 06:31:22;;;;;;;12.10;11.45;;;;;;;20.81;78.52;98766.22;6235242;23;20028;-75
2022/09/13 06:33:58;;;;;;;7.03;6.43;;;;;;;20.79;78.25;98782.00;6224666;23;20131;-80
2022/09/13 06:36:25;;;;;;;14.70;9.75;;;;;;;20.60;78.55;98751.84;6211815;23;20017;-80
2022/09/13 06:38:52;;;;;;;4.70;2.15;;;;;;;20.59;79.21;98770.91;6213002;23;20111;-80
2022/09/13 06:41:22;;;;;;;4.13;2.30;;;;;;;20.45;79.60;98733.88;6211275;23;20024;-83
2022/09/13 06:43:54;;;;;;;8.90;2.03;;;;;;;20.50;79.95;98778.06;6210665;23;20035;-82
2022/09/13 06:46:21;;;;;;;2.60;1.27;;;;;;;20.27;80.40;98775.41;6210583;23;20480;-80
2022/09/13 06:48:51;;;;;;;;;;;;;;;20.07;81.24;98839.97;6211705;23;20052;-83
2022/09/13 06:51:23;;;;;;;8.38;3.55;;;;;;;20.04;81.75;98792.56;6213949;23;19915;-86
2022/09/13 06:53:52;;;;;;;18.00;3.20;;;;;;;20.09;81.73;98803.53;6211744;23;20021;-84
2022/09/13 06:56:22;;;;;;;14.02;5.13;;;;;;;19.87;82.23;98757.97;6209789;23;20377;-83
2022/09/13 06:58:51;;;;;;;5.82;2.65;;;;;;;20.02;82.59;98823.28;6211610;23;20020;-84
2022/09/13 07:01:22;;;;;;;6.35;1.23;;;;;;;19.85;82.65;98813.38;6210907;23;20021;-83
2022/09/13 07:03:53;;;;;;;2.35;1.58;;;;;;;19.79;82.86;98787.41;6212247;23;20055;-83
2022/09/13 07:06:23;;;;;;;6.13;3.05;;;;;;;19.65;83.81;98802.19;6213199;23;20028;-85
2022/09/13 07:08:51;;;;;;;10.02;9.10;;;;;;;19.62;84.10;98811.44;6216034;23;20024;-83
2022/09/13 07:11:20;;;;;;;4.93;2.45;;;;;;;19.59;84.27;98805.72;6209538;23;20348;-84
2022/09/13 07:13:52;;;;;;;9.90;6.70;;;;;;;19.72;84.22;98780.84;6215607;23;20028;-85
2022/09/13 07:16:21;;;;;;;20.08;18.65;;;;;;;19.59;84.55;98774.59;6216121;23;20359;-84
2022/09/13 07:19:01;;;;;;;27.67;25.48;;;;;;;19.70;84.44;98774.75;6218634;23;20316;-84
2022/09/13 07:21:28;;;;;;;18.33;17.35;;;;;;;19.70;84.66;98834.22;6215174;23;20347;-84
2022/09/13 07:23:56;;;;;;;24.50;23.00;;;;;;;19.65;84.45;98815.53;6211799;23;20447;-84
2022/09/13 07:26:25;;;;;;;21.30;19.90;;;;;;;19.64;84.63;98803.41;6212954;23;20028;-85
2022/09/13 07:28:55;;;;;;;4.45;1.88;;;;;;;19.73;84.66;98819.31;6213591;23;20021;-87
2022/09/13 07:31:34;;;;;;;1.88;1.52;;;;;;;19.66;84.75;98828.50;6214057;23;20842;-86
2022/09/13 07:34:04;;;;;;;3.25;1.17;;;;;;;19.90;84.93;98841.38;6216597;23;20035;-85
2022/09/13 07:36:32;;;;;;;3.63;2.35;;;;;;;19.77;85.01;98837.16;6214543;23;20029;-85
2022/09/13 07:39:00;;;;;;;2.00;1.05;;;;;;;19.95;84.21;98818.34;6213425;23;20024;-86
2022/09/13 07:41:29;;;;;;;4.18;1.80;;;;;;;20.11;83.92;98806.81;6210484;23;20030;-85
2022/09/13 07:43:59;;;;;;;15.77;14.57;;;;;;;20.36;83.37;98835.44;6212378;23;20478;-87
2022/09/13 07:46:35;;;;;;;5.88;2.53;;;;;;;20.51;82.72;98837.25;6213907;23;20020;-85
2022/09/13 07:49:02;;;;;;;7.22;5.88;;;;;;;20.69;82.50;98839.47;6214831;23;20027;-88
2022/09/13 07:51:31;;;;;;;3.60;1.63;;;;;;;20.44;82.14;98794.59;6211385;23;20021;-86
2022/09/13 07:54:01;;;;;;;7.53;5.93;;;;;;;20.59;81.86;98812.63;6213427;23;20016;-92
2022/09/13 07:56:30;;;;;;;4.35;1.77;;;;;;;20.53;81.44;98802.84;6209379;23;20043;-84
2022/09/13 07:58:59;;;;;;;14.00;12.75;;;;;;;20.74;80.90;98845.56;6212341;23;20448;-82
2022/09/13 08:01:28;;;;;;;16.48;14.63;;;;;;;20.85;80.48;98870.41;6208799;23;20027;-83
2022/09/13 08:04:01;;;;;;;17.00;16.05;;;;;;;20.76;80.37;98840.34;6210467;23;20035;-80
2022/09/13 08:06:30;;;;;;;16.77;15.90;;;;;;;20.91;80.16;98834.78;6211121;23;20463;-83
2022/09/13 08:08:57;;;;;;;;;;;;;;;21.03;80.25;98874.22;6213064;23;20028;-89
2022/09/13 08:11:26;;;;;;;14.60;13.77;;;;;;;21.13;79.97;98867.00;6209302;23;19923;-83
2022/09/13 08:13:53;;;;;;;13.48;12.32;;;;;;;21.28;80.23;98875.25;6212273;23;20029;-83
2022/09/13 08:16:22;;;;;;;12.75;11.63;;;;;;;21.17;80.12;98842.31;6211061;23;20032;-84
2022/09/13 08:18:52;;;;;;;12.38;11.43;;;;;;;21.33;80.07;98862.69;6210437;23;20029;-86
2022/09/13 08:21:20;;;;;;;12.02;11.27;;;;;;;21.36;79.71;98876.13;6209339;23;20059;-85
2022/09/13 08:23:47;;;;;;;12.20;11.23;;;;;;;21.32;79.71;98854.59;6210866;23;20494;-84
2022/09/13 08:26:15;;;;;;;14.32;13.40;;;;;;;21.43;79.20;98879.03;6211959;23;20024;-88
2022/09/13 08:28:42;;;;;;;7.38;2.35;;;;;;;21.43;79.29;98861.19;6211631;23;20027;-85
2022/09/13 08:31:12;;;;;;;2.17;1.13;;;;;;;21.45;79.01;98872.97;6210639;23;20024;-87
2022/09/13 08:33:43;;;;;;;7.43;3.78;;;;;;;21.35;78.95;98885.88;6210274;23;20025;-86
2022/09/13 08:36:12;;;;;;;28.35;26.27;;;;;;;21.00;80.13;98861.63;6209936;23;20028;-83
2022/09/13 08:38:43;;;;;;;24.20;22.75;;;;;;;20.27;82.12;98852.75;6209163;23;20473;-83
2022/09/13 08:41:22;;;;;;;20.95;19.65;;;;;;;20.30;82.16;98874.66;6212577;23;20024;-83
2022/09/13 08:43:57;;;;;;;18.98;17.98;;;;;;;20.02;83.17;98903.44;6213310;23;20021;-83
2022/09/13 08:46:32;;;;;;;17.00;15.85;;;;;;;20.26;83.67;98899.31;6210413;23;20024;-83
2022/09/13 08:49:03;;;;;;;14.80;13.75;;;;;;;20.21;83.28;98862.81;6211192;23;20025;-88
2022/09/13 08:51:36;;;;;;;16.88;15.85;;;;;;;20.59;82.68;98873.00;6209305;23;20021;-85
2022/09/13 08:54:04;;;;;;;16.35;15.43;;;;;;;20.97;82.49;98899.31;6212408;23;20024;-86
2022/09/13 08:56:40;;;;;;;15.32;14.15;;;;;;;21.02;81.88;98875.41;6209073;23;20040;-82
2022/09/13 08:59:21;;;;;;;14.48;13.27;;;;;;;21.12;81.43;98902.28;6209525;23;20463;-87
2022/09/13 09:02:25;;;;;;;12.00;11.05;;;;;;;21.16;81.23;98920.16;6209609;23;20028;-83
2022/09/13 09:05:20;;;;;;;12.35;11.10;;;;;;;21.33;80.71;98893.94;6212208;23;20028;-84
2022/09/13 09:08:14;;;;;;;13.98;12.88;;;;;;;21.45;80.61;98918.41;6211487;23;20024;-87
2022/09/13 09:10:52;;;;;;;17.55;16.30;;;;;;;21.22;80.94;98873.97;6214374;23;20032;-85
2022/09/13 09:13:36;;;;;;;15.20;14.15;;;;;;;21.28;80.67;98889.44;6214922;23;20325;-85
2022/09/13 09:16:25;;;;;;;16.45;15.00;;;;;;;20.99;80.36;98898.91;6211751;23;20027;-83
2022/09/13 09:18:56;;;;;;;23.45;21.75;;;;;;;20.94;81.55;98925.63;6213903;23;20333;-87
2022/09/13 09:21:23;;;;;;;21.98;20.55;;;;;;;20.69;82.11;98914.03;6213741;23;20021;-84
2022/09/13 09:23:54;;;;;;;20.77;19.30;;;;;;;20.42;82.18;98918.13;6214512;23;20028;-85
2022/09/13 09:26:28;;;;;;;36.85;33.63;;;;;;;20.30;82.63;98907.84;6210443;23;20028;-84
2022/09/13 09:29:00;;;;;;;34.63;32.03;;;;;;;20.20;83.53;98928.38;6210141;23;20032;-81
2022/09/13 09:32:02;;;;;;;34.55;32.15;;;;;;;20.18;84.17;98933.63;6212544;23;20024;-83
2022/09/13 09:34:52;;;;;;;33.35;31.27;;;;;;;20.22;85.30;98960.00;6211889;23;20032;-84
2022/09/13 09:37:23;;;;;;;28.98;26.48;;;;;;;20.41;85.06;98942.84;6213986;23;20352;-82
2022/09/13 09:39:52;;;;;;;23.52;22.00;;;;;;;20.32;85.45;98931.78;6230391;23;20034;-90
2022/09/13 09:42:23;;;;;;;21.88;20.50;;;;;;;20.20;85.68;98934.03;6219845;23;20016;-83
2022/09/13 09:44:54;;;;;;;19.80;18.35;;;;;;;20.12;85.51;98933.13;6238021;23;20032;-86
2022/09/13 09:47:28;;;;;;;20.80;19.00;;;;;;;20.15;85.39;98954.22;6237383;23;20024;-84
2022/09/13 09:50:11;;;;;;;17.75;16.85;;;;;;;20.26;85.68;98964.50;6231364;23;20020;-87
2022/09/13 09:53:14;;;;;;;18.25;17.05;;;;;;;20.31;85.65;98943.53;6223629;23;20028;-81
2022/09/13 09:56:05;;;;;;;16.88;15.80;;;;;;;20.56;84.80;98953.16;6217002;23;20025;-82
2022/09/13 09:58:44;;;;;;;16.40;15.35;;;;;;;20.92;83.91;98967.78;6211910;23;20025;-83
2022/09/13 10:01:24;;;;;;;25.95;24.42;;;;;;;20.83;84.42;98982.25;6211460;23;20135;-85
2022/09/13 10:04:11;;;;;;;32.40;30.17;;;;;;;20.69;85.11;98972.78;6213548;23;20035;-84
2022/09/13 10:06:40;;;;;;;32.50;29.85;;;;;;;20.68;85.05;98979.63;6213030;23;20028;-85
2022/09/13 10:09:13;;;;;;;33.70;31.40;;;;;;;20.45;85.39;98979.75;6212977;23;20031;-87
2022/09/13 10:11:43;;;;;;;37.45;34.50;;;;;;;20.22;85.86;98985.50;6212650;23;20021;-82
2022/09/13 10:14:33;;;;;;;38.53;35.22;;;;;;;20.17;85.88;99005.66;6212291;23;20036;-82
2022/09/13 10:17:26;;;;;;;35.88;32.75;;;;;;;19.88;86.57;99003.22;6194554;23;20024;-82
2022/09/13 10:20:00;;;;;;;35.53;32.63;;;;;;;19.93;86.19;99013.44;6212821;23;20024;-81
2022/09/13 10:22:30;;;;;;;36.92;33.70;;;;;;;19.83;86.43;99002.75;6212715;23;20028;-80
2022/09/13 10:25:22;;;;;;;37.40;33.92;;;;;;;19.86;86.45;99008.47;6213705;23;20029;-84
2022/09/13 10:27:56;;;;;;;37.13;34.25;;;;;;;19.84;86.65;99010.03;6213265;23;20021;-83
2022/09/13 10:30:29;;;;;;;84.50;80.00;;;;;;;19.62;87.45;98981.34;6212428;23;20035;-84
2022/09/13 10:32:57;;;;;;;39.03;35.83;;;;;;;19.98;87.81;99004.59;6214045;23;20031;-85
2022/09/13 10:35:25;;;;;;;35.95;33.35;;;;;;;20.37;88.84;98995.81;6212757;23;20025;-81
2022/09/13 10:37:52;;;;;;;25.70;24.08;;;;;;;20.38;88.47;98988.16;6212814;23;20027;-80
2022/09/13 10:40:29;;;;;;;26.63;24.40;;;;;;;20.43;88.71;98993.47;6210305;23;20024;-83
2022/09/13 10:42:57;;;;;;;25.05;22.95;;;;;;;20.63;88.24;98999.84;6212227;23;20020;-81
2022/09/13 10:45:27;;;;;;;21.48;20.30;;;;;;;20.90;88.55;98992.06;6211930;23;20028;-81
2022/09/13 10:48:03;;;;;;;21.50;19.55;;;;;;;21.54;87.95;99004.09;6209680;23;20524;-78
2022/09/13 10:50:30;;;;;;;26.00;23.02;;;;;;;22.19;87.74;99005.44;6211260;23;20025;-80
2022/09/13 10:52:58;;;;;;;18.70;17.80;;;;;;;22.50;87.24;99006.84;6212208;23;20024;-83
2022/09/13 10:55:34;;;;;;;21.20;19.35;;;;;;;22.89;86.97;98995.59;6209196;23;20017;-81
2022/09/13 10:58:01;;;;;;;22.73;21.25;;;;;;;23.57;86.57;99012.06;6211080;23;20039;-83
2022/09/13 11:00:34;;;;;;;14.05;13.35;;;;;;;23.41;85.31;98973.34;6210842;23;20035;-92
2022/09/13 11:03:39;;;;;;;5.47;1.30;;;;;;;23.30;84.69;99005.91;6224326;23;20013;-93
2022/09/13 11:06:15;;;;;;;18.25;16.50;;;;;;;23.17;84.12;99009.13;6225666;23;20017;-84
2022/09/13 11:09:09;;;;;;;16.13;14.90;;;;;;;22.97;84.15;99007.03;6216648;23;20467;-86
2022/09/13 11:12:05;;;;;;;16.95;15.80;;;;;;;22.87;83.62;98989.50;6219910;23;20024;-87
2022/09/13 11:14:58;;;;;;;15.30;14.40;;;;;;;23.08;84.06;99005.06;6215643;23;20076;-92
2022/09/13 11:17:46;;;;;;;16.10;14.02;;;;;;;23.30;84.19;99009.56;6207534;23;20028;-86
2022/09/13 11:20:16;;;;;;;2.33;1.67;;;;;;;23.32;83.57;99012.03;6233895;23;20035;-85
2022/09/13 11:22:57;;;;;;;7.72;1.58;;;;;;;23.42;83.50;98997.78;6224572;23;20028;-83
2022/09/13 11:25:56;;;;;;;3.85;1.55;;;;;;;23.32;82.32;99010.00;6217605;23;20040;-83
2022/09/13 11:28:35;;;;;;;19.63;18.30;;;;;;;22.98;82.14;99011.53;6231706;23;20021;-90
2022/09/13 11:31:20;;;;;;;13.40;12.80;;;;;;;22.75;81.53;98997.59;6233038;23;20024;-85
2022/09/13 11:34:21;;;;;;;16.90;15.60;;;;;;;22.65;81.91;98996.31;6238483;23;20009;-86
2022/09/13 11:37:14;;;;;;;16.33;15.23;;;;;;;22.56;82.95;99007.25;6241343;23;20020;-90
2022/09/13 11:40:25;;;;;;;21.02;19.63;;;;;;;22.38;83.03;99002.28;6239330;23;20064;-85
2022/09/13 11:42:58;;;;;;;18.70;17.42;;;;;;;22.11;82.83;98983.81;6189145;23;20051;-85
2022/09/13 11:45:31;;;;;;;18.20;17.20;;;;;;;21.94;82.88;99014.56;6234170;23;20035;-84
2022/09/13 11:48:22;;;;;;;18.30;17.23;;;;;;;21.59;83.03;98955.44;6213574;23;20028;-85
2022/09/13 11:51:27;;;;;;;17.48;16.20;;;;;;;21.82;83.28;98999.88;6212271;23;20351;-85
2022/09/13 11:54:06;;;;;;;17.23;16.23;;;;;;;21.93;83.05;99010.09;6092573;23;20037;-86